sensor_id;sensor_type;location;lat;lon;timestamp;P1;durP1;ratioP1;P2;durP2;ratioP2
53666;SDS011;39568;51.026;5.468;2023-04-30T00:00:43;17.02;;;9.73;;
53666;SDS011;39568;51.026;5.468;2023-04-30T00:03:16;16.98;;;9.32;;
53666;SDS011;39568;51.026;5.468;2023-04-30T00:05:42;12.70;;;10.40;;
53666;SDS011;39568;51.026;5.468;2023-04-30T00:08:09;25.65;;;11.32;;
53666;SDS011;39568;51.026;5.468;2023-04-30T00:10:36;23.85;;;10.85;;
53666;SDS011;39568;51.026;5.468;2023-04-30T00:13:04;18.15;;;10.70;;
53666;SDS011;39568;51.026;5.468;2023-04-30T00:15:31;18.80;;;11.52;;
53666;SDS011;39568;51.026;5.468;2023-04-30T00:17:57;22.55;;;11.50;;
53666;SDS011;39568;51.026;5.468;2023-04-30T00:20:24;20.70;;;10.98;;
53666;SDS011;39568;51.026;5.468;2023-04-30T00:22:51;24.77;;;11.10;;
53666;SDS011;39568;51.026;5.468;2023-04-30T00:25:18;23.63;;;12.02;;
53666;SDS011;39568;51.026;5.468;2023-04-30T00:27:45;19.70;;;10.75;;
53666;SDS011;39568;51.026;5.468;2023-04-30T00:30:16;17.27;;;11.57;;
53666;SDS011;39568;51.026;5.468;2023-04-30T00:32:45;25.23;;;11.57;;
53666;SDS011;39568;51.026;5.468;2023-04-30T00:35:12;20.08;;;11.45;;
53666;SDS011;39568;51.026;5.468;2023-04-30T00:37:38;23.15;;;12.25;;
53666;SDS011;39568;51.026;5.468;2023-04-30T00:40:06;20.63;;;13.05;;
53666;SDS011;39568;51.026;5.468;2023-04-30T00:42:33;21.05;;;12.98;;
53666;SDS011;39568;51.026;5.468;2023-04-30T00:45:00;17.95;;;11.82;;
53666;SDS011;39568;51.026;5.468;2023-04-30T00:47:28;23.40;;;12.20;;
53666;SDS011;39568;51.026;5.468;2023-04-30T00:49:56;23.23;;;11.45;;
53666;SDS011;39568;51.026;5.468;2023-04-30T00:52:22;19.40;;;12.20;;
53666;SDS011;39568;51.026;5.468;2023-04-30T00:54:49;14.07;;;10.95;;
53666;SDS011;39568;51.026;5.468;2023-04-30T00:57:18;22.60;;;13.63;;
53666;SDS011;39568;51.026;5.468;2023-04-30T00:59:47;24.30;;;11.48;;
53666;SDS011;39568;51.026;5.468;2023-04-30T01:02:14;18.88;;;11.85;;
53666;SDS011;39568;51.026;5.468;2023-04-30T01:04:46;23.00;;;13.05;;
53666;SDS011;39568;51.026;5.468;2023-04-30T01:07:13;21.05;;;12.48;;
53666;SDS011;39568;51.026;5.468;2023-04-30T01:09:43;18.55;;;12.15;;
53666;SDS011;39568;51.026;5.468;2023-04-30T01:12:12;17.83;;;12.52;;
53666;SDS011;39568;51.026;5.468;2023-04-30T01:14:49;28.35;;;12.82;;
53666;SDS011;39568;51.026;5.468;2023-04-30T01:17:22;19.52;;;12.50;;
53666;SDS011;39568;51.026;5.468;2023-04-30T01:19:57;23.05;;;12.98;;
53666;SDS011;39568;51.026;5.468;2023-04-30T01:22:34;26.33;;;14.23;;
53666;SDS011;39568;51.026;5.468;2023-04-30T01:28:11;22.40;;;13.00;;
53666;SDS011;39568;51.026;5.468;2023-04-30T01:30:42;32.08;;;14.85;;
53666;SDS011;39568;51.026;5.468;2023-04-30T01:33:10;21.55;;;13.80;;
53666;SDS011;39568;51.026;5.468;2023-04-30T01:36:07;26.92;;;13.45;;
53666;SDS011;39568;51.026;5.468;2023-04-30T01:38:53;23.52;;;14.35;;
53666;SDS011;39568;51.026;5.468;2023-04-30T01:41:42;19.45;;;14.13;;
53666;SDS011;39568;51.026;5.468;2023-04-30T01:44:23;27.90;;;15.43;;
53666;SDS011;39568;51.026;5.468;2023-04-30T01:47:02;25.23;;;16.10;;
53666;SDS011;39568;51.026;5.468;2023-04-30T01:49:36;28.08;;;17.55;;
53666;SDS011;39568;51.026;5.468;2023-04-30T01:52:13;24.38;;;14.85;;
53666;SDS011;39568;51.026;5.468;2023-04-30T01:54:47;25.98;;;15.15;;
53666;SDS011;39568;51.026;5.468;2023-04-30T01:57:18;29.20;;;16.13;;
53666;SDS011;39568;51.026;5.468;2023-04-30T01:59:52;34.28;;;16.70;;
53666;SDS011;39568;51.026;5.468;2023-04-30T02:02:27;31.42;;;15.80;;
53666;SDS011;39568;51.026;5.468;2023-04-30T02:04:54;26.08;;;15.93;;
53666;SDS011;39568;51.026;5.468;2023-04-30T02:07:25;21.58;;;15.70;;
53666;SDS011;39568;51.026;5.468;2023-04-30T02:10:02;26.48;;;16.73;;
53666;SDS011;39568;51.026;5.468;2023-04-30T02:12:29;32.70;;;18.90;;
53666;SDS011;39568;51.026;5.468;2023-04-30T02:14:58;33.80;;;18.50;;
53666;SDS011;39568;51.026;5.468;2023-04-30T02:17:28;26.52;;;17.73;;
53666;SDS011;39568;51.026;5.468;2023-04-30T02:19:55;40.40;;;18.60;;
53666;SDS011;39568;51.026;5.468;2023-04-30T02:22:22;32.88;;;19.92;;
53666;SDS011;39568;51.026;5.468;2023-04-30T02:24:48;30.35;;;18.08;;
53666;SDS011;39568;51.026;5.468;2023-04-30T02:27:19;39.30;;;21.08;;
53666;SDS011;39568;51.026;5.468;2023-04-30T02:29:47;39.88;;;20.45;;
53666;SDS011;39568;51.026;5.468;2023-04-30T02:32:15;42.70;;;20.88;;
53666;SDS011;39568;51.026;5.468;2023-04-30T02:34:45;38.35;;;20.77;;
53666;SDS011;39568;51.026;5.468;2023-04-30T02:37:11;40.05;;;19.10;;
53666;SDS011;39568;51.026;5.468;2023-04-30T02:39:38;33.67;;;17.88;;
53666;SDS011;39568;51.026;5.468;2023-04-30T02:42:05;42.95;;;19.42;;
53666;SDS011;39568;51.026;5.468;2023-04-30T02:44:34;35.40;;;19.48;;
53666;SDS011;39568;51.026;5.468;2023-04-30T02:47:06;33.47;;;19.95;;
53666;SDS011;39568;51.026;5.468;2023-04-30T02:49:37;38.03;;;21.23;;
53666;SDS011;39568;51.026;5.468;2023-04-30T02:52:06;49.55;;;23.17;;
53666;SDS011;39568;51.026;5.468;2023-04-30T02:54:36;47.03;;;22.38;;
53666;SDS011;39568;51.026;5.468;2023-04-30T02:57:06;43.95;;;22.55;;
53666;SDS011;39568;51.026;5.468;2023-04-30T02:59:35;47.72;;;21.85;;
53666;SDS011;39568;51.026;5.468;2023-04-30T03:02:02;45.40;;;22.20;;
53666;SDS011;39568;51.026;5.468;2023-04-30T03:04:29;45.03;;;24.33;;
53666;SDS011;39568;51.026;5.468;2023-04-30T03:06:57;51.08;;;24.83;;
53666;SDS011;39568;51.026;5.468;2023-04-30T03:09:29;52.53;;;26.50;;
53666;SDS011;39568;51.026;5.468;2023-04-30T03:11:56;51.25;;;23.05;;
53666;SDS011;39568;51.026;5.468;2023-04-30T03:14:23;51.60;;;26.17;;
53666;SDS011;39568;51.026;5.468;2023-04-30T03:16:50;52.53;;;22.40;;
53666;SDS011;39568;51.026;5.468;2023-04-30T03:19:18;44.35;;;23.23;;
53666;SDS011;39568;51.026;5.468;2023-04-30T03:21:49;45.65;;;23.73;;
53666;SDS011;39568;51.026;5.468;2023-04-30T03:24:17;45.10;;;22.20;;
53666;SDS011;39568;51.026;5.468;2023-04-30T03:29:14;46.28;;;22.73;;
53666;SDS011;39568;51.026;5.468;2023-04-30T03:31:41;46.25;;;24.05;;
53666;SDS011;39568;51.026;5.468;2023-04-30T03:34:10;37.97;;;23.48;;
53666;SDS011;39568;51.026;5.468;2023-04-30T03:36:36;37.45;;;21.60;;
53666;SDS011;39568;51.026;5.468;2023-04-30T03:39:03;42.30;;;22.88;;
53666;SDS011;39568;51.026;5.468;2023-04-30T03:41:31;46.63;;;22.52;;
53666;SDS011;39568;51.026;5.468;2023-04-30T03:43:57;50.00;;;25.40;;
53666;SDS011;39568;51.026;5.468;2023-04-30T03:46:25;62.95;;;28.67;;
53666;SDS011;39568;51.026;5.468;2023-04-30T03:48:52;57.08;;;29.65;;
53666;SDS011;39568;51.026;5.468;2023-04-30T03:51:19;65.70;;;31.20;;
53666;SDS011;39568;51.026;5.468;2023-04-30T03:53:46;68.75;;;31.80;;
53666;SDS011;39568;51.026;5.468;2023-04-30T03:56:13;64.30;;;29.38;;
53666;SDS011;39568;51.026;5.468;2023-04-30T03:58:41;68.38;;;33.20;;
53666;SDS011;39568;51.026;5.468;2023-04-30T04:01:10;83.18;;;33.95;;
53666;SDS011;39568;51.026;5.468;2023-04-30T04:03:38;73.30;;;34.22;;
53666;SDS011;39568;51.026;5.468;2023-04-30T04:06:05;80.72;;;33.67;;
53666;SDS011;39568;51.026;5.468;2023-04-30T04:08:32;81.22;;;34.13;;
53666;SDS011;39568;51.026;5.468;2023-04-30T04:10:59;83.45;;;36.80;;
53666;SDS011;39568;51.026;5.468;2023-04-30T04:13:30;84.18;;;39.67;;
53666;SDS011;39568;51.026;5.468;2023-04-30T04:15:58;94.88;;;42.03;;
53666;SDS011;39568;51.026;5.468;2023-04-30T04:18:25;94.85;;;44.25;;
53666;SDS011;39568;51.026;5.468;2023-04-30T04:21:00;92.47;;;39.28;;
53666;SDS011;39568;51.026;5.468;2023-04-30T04:23:27;92.32;;;41.05;;
53666;SDS011;39568;51.026;5.468;2023-04-30T04:25:54;98.50;;;44.47;;
53666;SDS011;39568;51.026;5.468;2023-04-30T04:28:25;99.57;;;46.00;;
53666;SDS011;39568;51.026;5.468;2023-04-30T04:30:52;103.22;;;45.08;;
53666;SDS011;39568;51.026;5.468;2023-04-30T04:33:20;114.97;;;50.78;;
53666;SDS011;39568;51.026;5.468;2023-04-30T04:35:47;117.88;;;52.85;;
53666;SDS011;39568;51.026;5.468;2023-04-30T04:38:14;100.30;;;43.65;;
53666;SDS011;39568;51.026;5.468;2023-04-30T04:40:49;103.78;;;45.30;;
53666;SDS011;39568;51.026;5.468;2023-04-30T04:43:16;99.22;;;45.53;;
53666;SDS011;39568;51.026;5.468;2023-04-30T04:45:43;111.63;;;46.17;;
53666;SDS011;39568;51.026;5.468;2023-04-30T04:48:10;101.72;;;46.85;;
53666;SDS011;39568;51.026;5.468;2023-04-30T04:50:47;105.03;;;48.65;;
53666;SDS011;39568;51.026;5.468;2023-04-30T04:53:14;109.07;;;48.88;;
53666;SDS011;39568;51.026;5.468;2023-04-30T04:55:41;106.53;;;46.80;;
53666;SDS011;39568;51.026;5.468;2023-04-30T04:58:21;93.82;;;43.33;;
53666;SDS011;39568;51.026;5.468;2023-04-30T05:00:48;88.30;;;43.47;;
53666;SDS011;39568;51.026;5.468;2023-04-30T05:03:15;95.00;;;46.35;;
53666;SDS011;39568;51.026;5.468;2023-04-30T05:05:46;86.10;;;41.30;;
53666;SDS011;39568;51.026;5.468;2023-04-30T05:08:14;97.55;;;43.03;;
53666;SDS011;39568;51.026;5.468;2023-04-30T05:10:42;92.13;;;41.75;;
53666;SDS011;39568;51.026;5.468;2023-04-30T05:13:09;87.25;;;38.83;;
53666;SDS011;39568;51.026;5.468;2023-04-30T05:15:36;82.25;;;42.08;;
53666;SDS011;39568;51.026;5.468;2023-04-30T05:18:07;83.00;;;38.73;;
53666;SDS011;39568;51.026;5.468;2023-04-30T05:20:38;83.00;;;36.88;;
53666;SDS011;39568;51.026;5.468;2023-04-30T05:23:06;74.78;;;37.20;;
53666;SDS011;39568;51.026;5.468;2023-04-30T05:25:35;64.18;;;35.33;;
53666;SDS011;39568;51.026;5.468;2023-04-30T05:28:12;74.47;;;36.38;;
53666;SDS011;39568;51.026;5.468;2023-04-30T05:30:39;73.13;;;35.63;;
53666;SDS011;39568;51.026;5.468;2023-04-30T05:33:10;62.67;;;33.83;;
53666;SDS011;39568;51.026;5.468;2023-04-30T05:35:39;61.67;;;31.63;;
53666;SDS011;39568;51.026;5.468;2023-04-30T05:38:10;55.03;;;32.45;;
53666;SDS011;39568;51.026;5.468;2023-04-30T05:40:37;56.00;;;32.58;;
53666;SDS011;39568;51.026;5.468;2023-04-30T05:43:05;49.05;;;29.60;;
53666;SDS011;39568;51.026;5.468;2023-04-30T05:45:32;46.90;;;27.58;;
53666;SDS011;39568;51.026;5.468;2023-04-30T05:47:59;45.30;;;28.95;;
53666;SDS011;39568;51.026;5.468;2023-04-30T05:50:26;48.20;;;27.50;;
53666;SDS011;39568;51.026;5.468;2023-04-30T05:52:53;55.70;;;28.67;;
53666;SDS011;39568;51.026;5.468;2023-04-30T05:55:21;45.47;;;26.58;;
53666;SDS011;39568;51.026;5.468;2023-04-30T05:57:48;49.78;;;28.77;;
53666;SDS011;39568;51.026;5.468;2023-04-30T06:00:15;41.97;;;24.92;;
53666;SDS011;39568;51.026;5.468;2023-04-30T06:02:42;39.88;;;24.20;;
53666;SDS011;39568;51.026;5.468;2023-04-30T06:05:11;40.63;;;24.98;;
53666;SDS011;39568;51.026;5.468;2023-04-30T06:07:38;37.70;;;22.00;;
53666;SDS011;39568;51.026;5.468;2023-04-30T06:10:06;36.03;;;22.50;;
53666;SDS011;39568;51.026;5.468;2023-04-30T06:12:38;37.70;;;22.13;;
53666;SDS011;39568;51.026;5.468;2023-04-30T06:15:07;34.22;;;21.42;;
53666;SDS011;39568;51.026;5.468;2023-04-30T06:17:34;33.70;;;21.30;;
53666;SDS011;39568;51.026;5.468;2023-04-30T06:20:00;33.05;;;20.48;;
53666;SDS011;39568;51.026;5.468;2023-04-30T06:22:30;38.65;;;20.90;;
53666;SDS011;39568;51.026;5.468;2023-04-30T06:24:57;27.33;;;18.98;;
53666;SDS011;39568;51.026;5.468;2023-04-30T06:27:24;32.38;;;18.67;;
53666;SDS011;39568;51.026;5.468;2023-04-30T06:29:56;38.67;;;18.55;;
53666;SDS011;39568;51.026;5.468;2023-04-30T06:32:24;29.08;;;18.85;;
53666;SDS011;39568;51.026;5.468;2023-04-30T06:34:51;30.33;;;19.00;;
53666;SDS011;39568;51.026;5.468;2023-04-30T06:37:18;33.38;;;19.83;;
53666;SDS011;39568;51.026;5.468;2023-04-30T06:39:44;34.45;;;18.92;;
53666;SDS011;39568;51.026;5.468;2023-04-30T06:42:11;40.53;;;18.58;;
53666;SDS011;39568;51.026;5.468;2023-04-30T06:44:39;31.15;;;17.73;;
53666;SDS011;39568;51.026;5.468;2023-04-30T06:47:07;31.23;;;18.25;;
53666;SDS011;39568;51.026;5.468;2023-04-30T06:49:33;30.65;;;17.98;;
53666;SDS011;39568;51.026;5.468;2023-04-30T06:52:00;25.05;;;17.10;;
53666;SDS011;39568;51.026;5.468;2023-04-30T06:54:27;24.98;;;16.58;;
53666;SDS011;39568;51.026;5.468;2023-04-30T06:56:53;25.67;;;15.93;;
53666;SDS011;39568;51.026;5.468;2023-04-30T06:59:21;28.60;;;16.90;;
53666;SDS011;39568;51.026;5.468;2023-04-30T07:01:47;26.20;;;17.67;;
53666;SDS011;39568;51.026;5.468;2023-04-30T07:04:18;27.30;;;17.92;;
53666;SDS011;39568;51.026;5.468;2023-04-30T07:06:48;26.92;;;17.88;;
53666;SDS011;39568;51.026;5.468;2023-04-30T07:09:15;26.35;;;16.73;;
53666;SDS011;39568;51.026;5.468;2023-04-30T07:11:42;24.50;;;16.50;;
53666;SDS011;39568;51.026;5.468;2023-04-30T07:14:09;26.77;;;17.17;;
53666;SDS011;39568;51.026;5.468;2023-04-30T07:16:36;32.30;;;18.10;;
53666;SDS011;39568;51.026;5.468;2023-04-30T07:19:02;25.60;;;15.90;;
53666;SDS011;39568;51.026;5.468;2023-04-30T07:21:36;27.13;;;15.82;;
53666;SDS011;39568;51.026;5.468;2023-04-30T07:24:03;28.35;;;17.42;;
53666;SDS011;39568;51.026;5.468;2023-04-30T07:26:30;29.73;;;16.48;;
53666;SDS011;39568;51.026;5.468;2023-04-30T07:28:57;29.85;;;18.27;;
53666;SDS011;39568;51.026;5.468;2023-04-30T07:31:24;25.40;;;18.05;;
53666;SDS011;39568;51.026;5.468;2023-04-30T07:33:56;26.55;;;17.38;;
53666;SDS011;39568;51.026;5.468;2023-04-30T07:36:23;30.58;;;18.15;;
53666;SDS011;39568;51.026;5.468;2023-04-30T07:38:53;32.47;;;19.15;;
53666;SDS011;39568;51.026;5.468;2023-04-30T07:41:19;29.45;;;19.85;;
53666;SDS011;39568;51.026;5.468;2023-04-30T07:43:46;27.15;;;18.80;;
53666;SDS011;39568;51.026;5.468;2023-04-30T07:46:13;31.95;;;18.95;;
53666;SDS011;39568;51.026;5.468;2023-04-30T07:48:40;30.85;;;18.08;;
53666;SDS011;39568;51.026;5.468;2023-04-30T07:51:10;26.25;;;18.05;;
53666;SDS011;39568;51.026;5.468;2023-04-30T07:53:42;35.30;;;19.77;;
53666;SDS011;39568;51.026;5.468;2023-04-30T07:56:11;23.80;;;17.48;;
53666;SDS011;39568;51.026;5.468;2023-04-30T07:58:43;22.08;;;15.50;;
53666;SDS011;39568;51.026;5.468;2023-04-30T08:01:09;24.63;;;16.48;;
53666;SDS011;39568;51.026;5.468;2023-04-30T08:03:36;25.27;;;16.48;;
53666;SDS011;39568;51.026;5.468;2023-04-30T08:06:03;33.38;;;15.00;;
53666;SDS011;39568;51.026;5.468;2023-04-30T08:08:33;23.53;;;15.30;;
53666;SDS011;39568;51.026;5.468;2023-04-30T08:11:00;21.33;;;15.70;;
53666;SDS011;39568;51.026;5.468;2023-04-30T08:13:28;21.05;;;14.73;;
53666;SDS011;39568;51.026;5.468;2023-04-30T08:15:55;21.73;;;15.45;;
53666;SDS011;39568;51.026;5.468;2023-04-30T08:18:24;18.63;;;12.57;;
53666;SDS011;39568;51.026;5.468;2023-04-30T08:20:51;19.92;;;12.63;;
53666;SDS011;39568;51.026;5.468;2023-04-30T08:23:19;19.17;;;12.73;;
53666;SDS011;39568;51.026;5.468;2023-04-30T08:25:45;17.70;;;13.30;;
53666;SDS011;39568;51.026;5.468;2023-04-30T08:28:12;17.95;;;13.45;;
53666;SDS011;39568;51.026;5.468;2023-04-30T08:30:40;18.90;;;11.38;;
53666;SDS011;39568;51.026;5.468;2023-04-30T08:33:07;14.63;;;11.63;;
53666;SDS011;39568;51.026;5.468;2023-04-30T08:35:33;13.80;;;11.45;;
53666;SDS011;39568;51.026;5.468;2023-04-30T08:38:00;16.73;;;11.20;;
53666;SDS011;39568;51.026;5.468;2023-04-30T08:40:27;14.63;;;10.35;;
53666;SDS011;39568;51.026;5.468;2023-04-30T08:42:57;20.00;;;10.82;;
53666;SDS011;39568;51.026;5.468;2023-04-30T08:45:30;12.30;;;9.70;;
53666;SDS011;39568;51.026;5.468;2023-04-30T08:48:00;21.77;;;10.88;;
53666;SDS011;39568;51.026;5.468;2023-04-30T08:50:27;15.88;;;9.68;;
53666;SDS011;39568;51.026;5.468;2023-04-30T08:52:56;13.77;;;9.45;;
53666;SDS011;39568;51.026;5.468;2023-04-30T08:55:25;9.65;;;8.75;;
53666;SDS011;39568;51.026;5.468;2023-04-30T08:57:53;16.13;;;9.40;;
53666;SDS011;39568;51.026;5.468;2023-04-30T09:00:22;11.45;;;10.15;;
53666;SDS011;39568;51.026;5.468;2023-04-30T09:02:50;11.65;;;7.95;;
53666;SDS011;39568;51.026;5.468;2023-04-30T09:05:19;12.65;;;7.97;;
53666;SDS011;39568;51.026;5.468;2023-04-30T09:07:45;24.67;;;8.75;;
53666;SDS011;39568;51.026;5.468;2023-04-30T09:10:15;11.77;;;7.32;;
53666;SDS011;39568;51.026;5.468;2023-04-30T09:12:56;11.75;;;7.75;;
53666;SDS011;39568;51.026;5.468;2023-04-30T09:15:25;10.45;;;6.57;;
53666;SDS011;39568;51.026;5.468;2023-04-30T09:18:04;8.63;;;7.40;;
53666;SDS011;39568;51.026;5.468;2023-04-30T09:21:00;7.75;;;7.00;;
53666;SDS011;39568;51.026;5.468;2023-04-30T09:23:33;9.95;;;7.00;;
53666;SDS011;39568;51.026;5.468;2023-04-30T09:26:02;8.27;;;6.22;;
53666;SDS011;39568;51.026;5.468;2023-04-30T09:28:28;9.07;;;7.25;;
53666;SDS011;39568;51.026;5.468;2023-04-30T09:30:59;7.97;;;6.18;;
53666;SDS011;39568;51.026;5.468;2023-04-30T09:33:27;8.10;;;6.95;;
53666;SDS011;39568;51.026;5.468;2023-04-30T09:36:12;8.75;;;7.50;;
53666;SDS011;39568;51.026;5.468;2023-04-30T09:38:40;7.90;;;6.67;;
53666;SDS011;39568;51.026;5.468;2023-04-30T09:41:20;7.57;;;6.43;;
53666;SDS011;39568;51.026;5.468;2023-04-30T09:43:48;10.05;;;6.15;;
53666;SDS011;39568;51.026;5.468;2023-04-30T09:46:28;7.05;;;6.32;;
53666;SDS011;39568;51.026;5.468;2023-04-30T09:48:57;6.72;;;6.13;;
53666;SDS011;39568;51.026;5.468;2023-04-30T09:51:29;6.22;;;5.68;;
53666;SDS011;39568;51.026;5.468;2023-04-30T09:54:02;9.32;;;5.22;;
53666;SDS011;39568;51.026;5.468;2023-04-30T09:56:30;4.22;;;3.95;;
53666;SDS011;39568;51.026;5.468;2023-04-30T09:59:04;6.43;;;5.35;;
53666;SDS011;39568;51.026;5.468;2023-04-30T10:01:34;6.72;;;6.10;;
53666;SDS011;39568;51.026;5.468;2023-04-30T10:04:02;7.20;;;5.88;;
53666;SDS011;39568;51.026;5.468;2023-04-30T10:06:31;5.35;;;4.07;;
53666;SDS011;39568;51.026;5.468;2023-04-30T10:09:03;6.35;;;5.75;;
53666;SDS011;39568;51.026;5.468;2023-04-30T10:11:36;4.32;;;3.92;;
53666;SDS011;39568;51.026;5.468;2023-04-30T10:14:05;5.90;;;4.10;;
53666;SDS011;39568;51.026;5.468;2023-04-30T10:16:39;3.75;;;3.42;;
53666;SDS011;39568;51.026;5.468;2023-04-30T10:19:10;2.75;;;2.30;;
53666;SDS011;39568;51.026;5.468;2023-04-30T10:21:41;3.30;;;2.95;;
53666;SDS011;39568;51.026;5.468;2023-04-30T10:24:11;4.28;;;3.75;;
53666;SDS011;39568;51.026;5.468;2023-04-30T10:26:40;2.38;;;2.28;;
53666;SDS011;39568;51.026;5.468;2023-04-30T10:29:07;4.50;;;2.72;;
53666;SDS011;39568;51.026;5.468;2023-04-30T10:31:35;10.68;;;2.92;;
53666;SDS011;39568;51.026;5.468;2023-04-30T10:34:04;3.67;;;3.38;;
53666;SDS011;39568;51.026;5.468;2023-04-30T10:36:38;3.55;;;3.28;;
53666;SDS011;39568;51.026;5.468;2023-04-30T10:39:10;2.97;;;2.78;;
53666;SDS011;39568;51.026;5.468;2023-04-30T10:41:37;2.97;;;2.65;;
53666;SDS011;39568;51.026;5.468;2023-04-30T10:44:04;3.17;;;2.63;;
53666;SDS011;39568;51.026;5.468;2023-04-30T10:46:33;2.70;;;2.08;;
53666;SDS011;39568;51.026;5.468;2023-04-30T10:49:01;3.83;;;2.60;;
53666;SDS011;39568;51.026;5.468;2023-04-30T10:51:43;3.15;;;2.28;;
53666;SDS011;39568;51.026;5.468;2023-04-30T10:54:13;2.83;;;2.63;;
53666;SDS011;39568;51.026;5.468;2023-04-30T10:56:43;3.30;;;2.88;;
53666;SDS011;39568;51.026;5.468;2023-04-30T10:59:11;4.18;;;2.42;;
53666;SDS011;39568;51.026;5.468;2023-04-30T11:01:54;3.47;;;2.00;;
53666;SDS011;39568;51.026;5.468;2023-04-30T11:04:22;2.38;;;2.28;;
53666;SDS011;39568;51.026;5.468;2023-04-30T11:07:06;2.85;;;2.40;;
53666;SDS011;39568;51.026;5.468;2023-04-30T11:09:40;2.10;;;1.98;;
53666;SDS011;39568;51.026;5.468;2023-04-30T11:12:12;2.70;;;2.05;;
53666;SDS011;39568;51.026;5.468;2023-04-30T11:14:40;2.85;;;2.63;;
53666;SDS011;39568;51.026;5.468;2023-04-30T11:17:08;1.88;;;1.77;;
53666;SDS011;39568;51.026;5.468;2023-04-30T11:19:41;1.92;;;1.50;;
53666;SDS011;39568;51.026;5.468;2023-04-30T11:22:18;2.17;;;1.80;;
53666;SDS011;39568;51.026;5.468;2023-04-30T11:25:00;2.75;;;2.53;;
53666;SDS011;39568;51.026;5.468;2023-04-30T11:27:30;2.00;;;1.90;;
53666;SDS011;39568;51.026;5.468;2023-04-30T11:29:57;2.33;;;2.13;;
53666;SDS011;39568;51.026;5.468;2023-04-30T11:32:25;2.47;;;2.28;;
53666;SDS011;39568;51.026;5.468;2023-04-30T11:34:57;2.85;;;1.98;;
53666;SDS011;39568;51.026;5.468;2023-04-30T11:37:28;6.43;;;2.25;;
53666;SDS011;39568;51.026;5.468;2023-04-30T11:40:00;3.03;;;2.40;;
53666;SDS011;39568;51.026;5.468;2023-04-30T11:42:28;5.90;;;2.08;;
53666;SDS011;39568;51.026;5.468;2023-04-30T11:45:01;2.38;;;2.17;;
53666;SDS011;39568;51.026;5.468;2023-04-30T11:47:38;4.47;;;2.08;;
53666;SDS011;39568;51.026;5.468;2023-04-30T11:50:07;2.10;;;1.77;;
53666;SDS011;39568;51.026;5.468;2023-04-30T11:52:34;4.13;;;2.05;;
53666;SDS011;39568;51.026;5.468;2023-04-30T11:55:05;1.90;;;1.80;;
53666;SDS011;39568;51.026;5.468;2023-04-30T11:57:33;1.63;;;1.52;;
53666;SDS011;39568;51.026;5.468;2023-04-30T12:00:12;2.30;;;1.52;;
53666;SDS011;39568;51.026;5.468;2023-04-30T12:02:44;2.95;;;2.03;;
53666;SDS011;39568;51.026;5.468;2023-04-30T12:05:13;1.67;;;1.58;;
53666;SDS011;39568;51.026;5.468;2023-04-30T12:07:44;2.20;;;2.10;;
53666;SDS011;39568;51.026;5.468;2023-04-30T12:10:14;3.15;;;2.08;;
53666;SDS011;39568;51.026;5.468;2023-04-30T12:12:41;1.70;;;1.60;;
53666;SDS011;39568;51.026;5.468;2023-04-30T12:15:12;9.50;;;1.45;;
53666;SDS011;39568;51.026;5.468;2023-04-30T12:17:41;0.90;;;0.90;;
53666;SDS011;39568;51.026;5.468;2023-04-30T12:20:08;2.15;;;1.00;;
53666;SDS011;39568;51.026;5.468;2023-04-30T12:22:36;1.02;;;0.93;;
53666;SDS011;39568;51.026;5.468;2023-04-30T12:25:07;1.00;;;1.00;;
53666;SDS011;39568;51.026;5.468;2023-04-30T12:27:41;2.55;;;1.30;;
53666;SDS011;39568;51.026;5.468;2023-04-30T12:30:11;1.20;;;1.20;;
53666;SDS011;39568;51.026;5.468;2023-04-30T12:32:42;3.15;;;1.85;;
53666;SDS011;39568;51.026;5.468;2023-04-30T12:35:12;1.88;;;1.58;;
53666;SDS011;39568;51.026;5.468;2023-04-30T12:37:41;1.83;;;1.73;;
53666;SDS011;39568;51.026;5.468;2023-04-30T12:40:10;3.08;;;2.05;;
53666;SDS011;39568;51.026;5.468;2023-04-30T12:42:37;2.03;;;1.92;;
53666;SDS011;39568;51.026;5.468;2023-04-30T12:45:08;1.90;;;1.75;;
53666;SDS011;39568;51.026;5.468;2023-04-30T12:47:36;2.35;;;1.75;;
53666;SDS011;39568;51.026;5.468;2023-04-30T12:52:33;1.60;;;1.45;;
53666;SDS011;39568;51.026;5.468;2023-04-30T12:55:13;1.95;;;1.85;;
53666;SDS011;39568;51.026;5.468;2023-04-30T12:57:40;2.40;;;2.28;;
53666;SDS011;39568;51.026;5.468;2023-04-30T13:00:09;1.88;;;1.77;;
53666;SDS011;39568;51.026;5.468;2023-04-30T13:02:36;1.73;;;1.57;;
53666;SDS011;39568;51.026;5.468;2023-04-30T13:05:04;1.90;;;1.67;;
53666;SDS011;39568;51.026;5.468;2023-04-30T13:07:35;1.70;;;1.60;;
53666;SDS011;39568;51.026;5.468;2023-04-30T13:10:04;1.70;;;1.60;;
53666;SDS011;39568;51.026;5.468;2023-04-30T13:12:31;1.40;;;1.30;;
53666;SDS011;39568;51.026;5.468;2023-04-30T13:14:58;3.15;;;1.58;;
53666;SDS011;39568;51.026;5.468;2023-04-30T13:17:28;1.25;;;1.13;;
53666;SDS011;39568;51.026;5.468;2023-04-30T13:19:57;1.58;;;1.48;;
53666;SDS011;39568;51.026;5.468;2023-04-30T13:22:28;1.63;;;1.52;;
53666;SDS011;39568;51.026;5.468;2023-04-30T13:24:54;1.30;;;1.27;;
53666;SDS011;39568;51.026;5.468;2023-04-30T13:27:21;1.40;;;1.30;;
53666;SDS011;39568;51.026;5.468;2023-04-30T13:29:48;1.55;;;1.45;;
53666;SDS011;39568;51.026;5.468;2023-04-30T13:32:15;1.30;;;1.27;;
53666;SDS011;39568;51.026;5.468;2023-04-30T13:34:44;1.17;;;1.05;;
53666;SDS011;39568;51.026;5.468;2023-04-30T13:37:12;2.35;;;1.30;;
53666;SDS011;39568;51.026;5.468;2023-04-30T13:39:40;0.60;;;0.60;;
53666;SDS011;39568;51.026;5.468;2023-04-30T13:42:12;0.82;;;0.82;;
53666;SDS011;39568;51.026;5.468;2023-04-30T13:44:39;0.70;;;0.70;;
53666;SDS011;39568;51.026;5.468;2023-04-30T13:47:06;0.63;;;0.63;;
53666;SDS011;39568;51.026;5.468;2023-04-30T13:49:33;1.02;;;0.90;;
53666;SDS011;39568;51.026;5.468;2023-04-30T13:52:01;1.27;;;0.90;;
53666;SDS011;39568;51.026;5.468;2023-04-30T13:54:28;0.80;;;0.80;;
53666;SDS011;39568;51.026;5.468;2023-04-30T13:56:55;3.20;;;0.95;;
53666;SDS011;39568;51.026;5.468;2023-04-30T13:59:23;0.90;;;0.90;;
53666;SDS011;39568;51.026;5.468;2023-04-30T14:01:50;0.77;;;0.77;;
53666;SDS011;39568;51.026;5.468;2023-04-30T14:04:18;3.28;;;1.58;;
53666;SDS011;39568;51.026;5.468;2023-04-30T14:06:46;0.85;;;0.85;;
53666;SDS011;39568;51.026;5.468;2023-04-30T14:09:14;1.55;;;1.17;;
53666;SDS011;39568;51.026;5.468;2023-04-30T14:11:42;1.77;;;1.40;;
53666;SDS011;39568;51.026;5.468;2023-04-30T14:14:08;1.50;;;1.40;;
53666;SDS011;39568;51.026;5.468;2023-04-30T14:16:35;3.75;;;1.30;;
53666;SDS011;39568;51.026;5.468;2023-04-30T14:19:02;1.98;;;1.20;;
53666;SDS011;39568;51.026;5.468;2023-04-30T14:21:29;1.90;;;1.65;;
53666;SDS011;39568;51.026;5.468;2023-04-30T14:23:55;1.20;;;1.10;;
53666;SDS011;39568;51.026;5.468;2023-04-30T14:26:25;2.80;;;1.02;;
53666;SDS011;39568;51.026;5.468;2023-04-30T14:28:53;2.67;;;1.40;;
53666;SDS011;39568;51.026;5.468;2023-04-30T14:31:21;1.50;;;1.02;;
53666;SDS011;39568;51.026;5.468;2023-04-30T14:33:47;2.05;;;1.33;;
53666;SDS011;39568;51.026;5.468;2023-04-30T14:36:15;1.60;;;1.50;;
53666;SDS011;39568;51.026;5.468;2023-04-30T14:38:43;2.17;;;1.30;;
53666;SDS011;39568;51.026;5.468;2023-04-30T14:41:11;1.45;;;1.10;;
53666;SDS011;39568;51.026;5.468;2023-04-30T14:43:40;1.33;;;1.33;;
53666;SDS011;39568;51.026;5.468;2023-04-30T14:46:07;1.63;;;1.13;;
53666;SDS011;39568;51.026;5.468;2023-04-30T14:48:34;1.30;;;1.20;;
53666;SDS011;39568;51.026;5.468;2023-04-30T14:51:00;1.77;;;1.30;;